Time;durP1;ratioP1;P1;durP2;ratioP2;P2;SDS_P1;SDS_P2;PMS_P1;PMS_P2;Temp;Humidity;BMP_temperature;BMP_pressure;BME280_temperature;BME280_humidity;BME280_pressure;Samples;Min_cycle;Max_cycle;Signal;HPM_P1;HPM_P2
2021/10/22 00:01:47;;;;;;;15.05;8.88;;;25.50;99.40;;;;;;1968659;71;21583;-82
2021/10/22 00:04:17;;;;;;;2.95;1.60;;;25.50;98.90;;;;;;1977730;71;22400;-83
2021/10/22 00:06:48;;;;;;;2.85;1.60;;;25.40;98.40;;;;;;1991158;70;21173;-83
2021/10/22 00:09:19;;;;;;;3.27;1.17;;;25.40;98.30;;;;;;1978835;71;21068;-83
2021/10/22 00:11:51;;;;;;;3.98;1.10;;;25.30;98.20;;;;;;1985121;71;21512;-82
2021/10/22 00:14:23;;;;;;;7.53;3.45;;;25.40;98.40;;;;;;1980922;70;21178;-82
2021/10/22 00:16:54;;;;;;;3.05;1.50;;;25.40;98.60;;;;;;1969338;71;21232;-84
2021/10/22 00:19:25;;;;;;;4.22;1.37;;;25.40;98.40;;;;;;1903667;74;21979;-84
2021/10/22 00:21:56;;;;;;;3.22;1.50;;;25.40;98.40;;;;;;1915464;73;21135;-83
2021/10/22 00:24:27;;;;;;;4.65;1.60;;;25.40;98.40;;;;;;1965433;72;21126;-84
2021/10/22 00:26:59;;;;;;;4.45;1.30;;;25.40;98.40;;;;;;1967057;71;21162;-83
2021/10/22 00:29:30;;;;;;;3.20;1.07;;;25.30;98.50;;;;;;1963440;71;21169;-82
2021/10/22 00:32:00;;;;;;;3.50;1.20;;;25.30;98.60;;;;;;1962686;71;21268;-82
2021/10/22 00:34:31;;;;;;;4.12;1.20;;;25.30;98.70;;;;;;1958953;71;21068;-83
2021/10/22 00:37:03;;;;;;;5.85;1.40;;;25.30;98.90;;;;;;1973203;71;21136;-82
2021/10/22 00:39:34;;;;;;;5.85;2.72;;;25.30;99.00;;;;;;1977932;71;21141;-82
2021/10/22 00:42:07;;;;;;;4.12;1.80;;;25.30;99.20;;;;;;1983057;71;21142;-83
2021/10/22 00:44:38;;;;;;;6.90;1.60;;;25.30;99.40;;;;;;1977440;71;21560;-84
2021/10/22 00:47:09;;;;;;;3.77;1.52;;;25.40;99.50;;;;;;1979007;71;21170;-75
2021/10/22 00:49:40;;;;;;;2.10;1.40;;;25.40;99.40;;;;;;1959817;71;21591;-73
2021/10/22 00:52:11;;;;;;;3.58;1.52;;;25.40;99.50;;;;;;1962044;71;21535;-72
2021/10/22 00:54:43;;;;;;;5.72;1.60;;;25.40;99.60;;;;;;1955055;72;21672;-72
2021/10/22 00:57:14;;;;;;;5.58;1.72;;;25.50;99.80;;;;;;1967368;71;21654;-73
2021/10/22 00:59:47;;;;;;;6.22;1.92;;;25.50;99.80;;;;;;1907881;74;21237;-72
2021/10/22 01:02:18;;;;;;;3.15;1.50;;;25.50;99.90;;;;;;1934878;72;21512;-72
2021/10/22 01:04:54;;;;;;;7.45;1.80;;;25.50;99.90;;;;;;1977822;71;22295;-72
2021/10/22 01:07:22;;;;;;;8.40;3.50;;;25.60;99.90;;;;;;1972916;71;21165;-72
2021/10/22 01:09:53;;;;;;;5.15;3.02;;;25.50;99.90;;;;;;1983122;71;22347;-72
2021/10/22 01:12:24;;;;;;;7.95;5.10;;;25.70;99.90;;;;;;1977877;71;21135;-72
2021/10/22 01:14:58;;;;;;;23.85;21.75;;;25.70;99.90;;;;;;1963551;71;21245;-72
2021/10/22 01:17:32;;;;;;;6.97;5.05;;;25.80;99.90;;;;;;1977418;71;21111;-73
2021/10/22 01:20:03;;;;;;;7.97;3.55;;;25.80;99.90;;;;;;1982106;71;21166;-73
2021/10/22 01:22:34;;;;;;;5.00;2.90;;;25.90;99.90;;;;;;1978771;71;21399;-72
2021/10/22 01:25:07;;;;;;;7.15;3.22;;;25.90;99.90;;;;;;1964547;71;21186;-72
2021/10/22 01:27:38;;;;;;;6.30;4.03;;;26.00;99.90;;;;;;1960475;71;22653;-73
2021/10/22 01:30:11;;;;;;;6.03;3.10;;;26.00;99.90;;;;;;1968782;71;21162;-73
2021/10/22 01:32:43;;;;;;;2.55;1.42;;;26.10;99.90;;;;;;1907626;74;21224;-72
2021/10/22 01:35:14;;;;;;;4.35;1.80;;;26.20;99.90;;;;;;1939587;71;21143;-72
2021/10/22 01:37:45;;;;;;;3.90;1.75;;;26.20;99.90;;;;;;1961229;71;21133;-72
2021/10/22 01:40:16;;;;;;;4.90;2.20;;;26.20;99.90;;;;;;1964359;71;21687;-72
2021/10/22 01:42:47;;;;;;;5.72;2.15;;;26.30;99.90;;;;;;1963226;71;21180;-72
2021/10/22 01:45:19;;;;;;;4.20;2.30;;;26.30;99.90;;;;;;1947619;71;21168;-72
2021/10/22 01:47:50;;;;;;;2.35;1.40;;;26.40;99.90;;;;;;1960838;71;21262;-72
2021/10/22 01:50:21;;;;;;;3.95;1.50;;;26.50;99.90;;;;;;1961114;71;21607;-72
2021/10/22 01:52:52;;;;;;;5.70;1.85;;;26.50;99.90;;;;;;1956858;71;21115;-73
2021/10/22 01:55:23;;;;;;;6.75;3.45;;;26.60;99.90;;;;;;1962431;71;21123;-72
2021/10/22 01:57:55;;;;;;;5.60;2.35;;;26.70;99.90;;;;;;1944408;71;21143;-72
2021/10/22 02:00:25;;;;;;;3.17;1.47;;;26.80;99.90;;;;;;1925298;73;21088;-71
2021/10/22 02:02:56;;;;;;;3.02;1.67;;;26.60;99.90;;;;;;1974503;71;21171;-73
2021/10/22 02:05:30;;;;;;;3.42;1.95;;;26.70;99.90;;;;;;1969012;71;21150;-74
2021/10/22 02:08:00;;;;;;;6.08;1.70;;;26.70;99.90;;;;;;1967796;71;21131;-74
2021/10/22 02:10:32;;;;;;;3.75;2.10;;;26.70;99.90;;;;;;1971173;71;21114;-73
2021/10/22 02:13:03;;;;;;;4.05;2.35;;;26.90;99.90;;;;;;1973313;71;21167;-72
2021/10/22 02:15:34;;;;;;;5.30;1.92;;;26.90;99.90;;;;;;1983559;71;21216;-73
2021/10/22 02:18:05;;;;;;;3.47;1.67;;;26.90;99.90;;;;;;1984172;71;21333;-73
2021/10/22 02:20:38;;;;;;;5.35;2.33;;;26.90;99.90;;;;;;1958613;71;21141;-72
2021/10/22 02:23:08;;;;;;;2.92;1.65;;;27.00;99.90;;;;;;1975010;71;21186;-73
2021/10/22 02:25:39;;;;;;;3.08;1.82;;;27.00;99.90;;;;;;1962608;71;21119;-72
2021/10/22 02:28:10;;;;;;;4.83;2.10;;;27.10;99.90;;;;;;1979309;71;21640;-73
2021/10/22 02:30:42;;;;;;;3.05;1.80;;;27.10;99.90;;;;;;1970707;71;21098;-73
2021/10/22 02:33:13;;;;;;;3.67;2.15;;;27.20;99.90;;;;;;1978695;71;21127;-72
2021/10/22 02:35:44;;;;;;;5.00;2.40;;;27.30;99.90;;;;;;1970170;71;21494;-72
2021/10/22 02:38:15;;;;;;;4.55;1.80;;;27.30;99.90;;;;;;1961460;71;21474;-72
2021/10/22 02:40:46;;;;;;;6.33;2.33;;;27.30;99.90;;;;;;1964472;71;21080;-73
2021/10/22 02:43:26;;;;;;;3.85;2.12;;;27.40;99.90;;;;;;1909842;73;21142;-72
2021/10/22 02:45:57;;;;;;;4.92;2.30;;;27.50;99.90;;;;;;1963409;71;21890;-73
2021/10/22 02:48:28;;;;;;;4.83;2.33;;;27.80;99.90;;;;;;1964944;71;21152;-73
2021/10/22 02:51:00;;;;;;;3.67;1.87;;;27.80;99.90;;;;;;1955182;71;21300;-72
2021/10/22 02:53:31;;;;;;;4.20;2.00;;;28.00;99.90;;;;;;1968757;71;21131;-72
2021/10/22 02:56:02;;;;;;;3.15;1.75;;;28.00;99.90;;;;;;1978549;71;21123;-72
2021/10/22 02:58:33;;;;;;;6.08;2.40;;;28.10;99.90;;;;;;1972536;71;21279;-72
2021/10/22 03:01:05;;;;;;;5.22;2.80;;;28.40;99.70;;;;;;1978086;71;21176;-72
2021/10/22 03:03:37;;;;;;;3.35;2.20;;;28.40;99.50;;;;;;1963975;71;21174;-72
2021/10/22 03:06:08;;;;;;;5.83;2.42;;;28.40;98.80;;;;;;1982599;71;21127;-71
2021/10/22 03:08:38;;;;;;;5.03;2.20;;;28.60;98.40;;;;;;1969255;71;21045;-72
2021/10/22 03:11:09;;;;;;;3.30;2.05;;;28.60;98.20;;;;;;1975105;71;21114;-72
2021/10/22 03:13:40;;;;;;;3.62;2.20;;;28.60;98.20;;;;;;1967808;71;21256;-72
2021/10/22 03:16:11;;;;;;;3.58;2.47;;;28.70;97.80;;;;;;1965683;71;21172;-72
2021/10/22 03:18:42;;;;;;;3.65;2.12;;;28.80;97.20;;;;;;1972690;71;21194;-72
2021/10/22 03:21:13;;;;;;;4.08;2.10;;;28.80;96.80;;;;;;1953501;71;21123;-72
2021/10/22 03:23:44;;;;;;;3.00;1.77;;;28.90;96.70;;;;;;1975516;71;21132;-72
2021/10/22 03:26:15;;;;;;;3.42;1.67;;;28.90;96.50;;;;;;1965149;71;21638;-72
2021/10/22 03:28:45;;;;;;;3.10;1.70;;;28.80;96.60;;;;;;1957707;72;21154;-72
2021/10/22 03:31:16;;;;;;;3.15;1.50;;;28.70;96.70;;;;;;1956565;72;21198;-72
2021/10/22 03:33:47;;;;;;;4.00;1.85;;;28.70;96.90;;;;;;1950812;72;21638;-72
2021/10/22 03:36:18;;;;;;;3.15;1.75;;;28.50;97.20;;;;;;1973533;71;21623;-73
2021/10/22 03:38:50;;;;;;;5.22;1.92;;;28.40;97.50;;;;;;1977033;71;21142;-71
2021/10/22 03:41:21;;;;;;;3.12;2.02;;;28.30;97.80;;;;;;1980657;71;21282;-72
2021/10/22 03:43:52;;;;;;;3.37;2.10;;;28.30;98.10;;;;;;1973683;71;21596;-72
2021/10/22 03:46:23;;;;;;;3.12;2.05;;;28.20;98.10;;;;;;1975979;71;21591;-71
2021/10/22 03:48:54;;;;;;;3.42;1.90;;;28.20;98.20;;;;;;1971326;71;21628;-72
2021/10/22 03:51:25;;;;;;;3.62;1.87;;;28.30;98.30;;;;;;1974408;71;21793;-71
2021/10/22 03:53:56;;;;;;;2.60;1.80;;;28.30;98.20;;;;;;1977550;71;21151;-72
2021/10/22 03:56:27;;;;;;;3.30;2.10;;;28.40;98.10;;;;;;1975873;71;21198;-71
2021/10/22 03:58:58;;;;;;;3.87;1.70;;;28.40;98.00;;;;;;1966490;71;22173;-73
2021/10/22 04:01:29;;;;;;;2.58;1.40;;;28.40;97.60;;;;;;1947039;72;21076;-72
2021/10/22 04:04:00;;;;;;;4.28;1.55;;;28.50;97.60;;;;;;1957296;71;21567;-73
2021/10/22 04:06:31;;;;;;;3.75;1.82;;;28.60;97.00;;;;;;1959389;71;21203;-73
2021/10/22 04:09:02;;;;;;;3.77;1.82;;;28.60;97.00;;;;;;1960059;71;21630;-74
2021/10/22 04:11:33;;;;;;;2.50;1.60;;;28.70;97.20;;;;;;1978130;71;21678;-73
2021/10/22 04:14:04;;;;;;;4.05;1.57;;;28.80;97.20;;;;;;1973628;71;21232;-73
2021/10/22 04:16:35;;;;;;;2.95;1.50;;;28.80;96.50;;;;;;1977493;71;21646;-73
2021/10/22 04:19:06;;;;;;;3.08;1.67;;;28.90;96.30;;;;;;1968466;71;21155;-72
2021/10/22 04:21:37;;;;;;;1.90;1.10;;;28.90;96.30;;;;;;1969672;71;21167;-74
2021/10/22 04:24:08;;;;;;;3.10;1.42;;;29.00;95.80;;;;;;1929807;72;21147;-73
2021/10/22 04:26:38;;;;;;;5.65;1.30;;;29.00;95.30;;;;;;1950554;72;21168;-74
2021/10/22 04:29:09;;;;;;;2.12;1.37;;;28.90;95.20;;;;;;1976666;71;21194;-74
2021/10/22 04:31:41;;;;;;;1.82;1.02;;;28.90;95.10;;;;;;1970359;71;21663;-74
2021/10/22 04:34:12;;;;;;;2.40;1.22;;;28.80;95.00;;;;;;1973135;71;21171;-74
2021/10/22 04:36:44;;;;;;;3.77;1.27;;;28.80;95.20;;;;;;1969511;71;21126;-74
2021/10/22 04:41:47;;;;;;;2.58;1.22;;;29.00;95.40;;;;;;1970292;71;21254;-74
2021/10/22 04:44:18;;;;;;;5.55;2.00;;;28.90;95.60;;;;;;1976313;71;21111;-75
2021/10/22 04:46:49;;;;;;;4.62;2.17;;;28.90;94.80;;;;;;1971202;71;21303;-74
2021/10/22 04:49:20;;;;;;;3.62;1.75;;;28.90;94.90;;;;;;1968668;71;21081;-75
2021/10/22 04:51:51;;;;;;;4.50;2.27;;;28.80;95.20;;;;;;1978872;71;21137;-73
2021/10/22 04:54:22;;;;;;;5.05;2.83;;;28.90;95.20;;;;;;1973482;71;21711;-73
2021/10/22 04:56:53;;;;;;;5.20;1.40;;;28.80;95.10;;;;;;1941006;72;21763;-73
2021/10/22 04:59:24;;;;;;;2.65;1.57;;;29.00;95.00;;;;;;1958364;72;21064;-73
2021/10/22 05:01:55;;;;;;;2.27;1.40;;;28.90;95.20;;;;;;1968906;70;21161;-73
2021/10/22 05:04:28;;;;;;;3.25;1.20;;;28.80;95.00;;;;;;1979400;71;21112;-73
2021/10/22 05:06:59;;;;;;;3.37;1.75;;;28.90;95.10;;;;;;1978956;71;21908;-74
2021/10/22 05:09:34;;;;;;;3.35;1.30;;;28.90;95.00;;;;;;1983932;70;21181;-73
2021/10/22 05:12:06;;;;;;;4.47;1.40;;;28.90;95.00;;;;;;1941749;71;21183;-73
2021/10/22 05:14:40;;;;;;;4.03;2.47;;;29.10;94.90;;;;;;1977237;71;21248;-73
2021/10/22 05:17:11;;;;;;;3.15;1.40;;;29.20;94.70;;;;;;1975771;71;21417;-73
2021/10/22 05:19:45;;;;;;;2.77;1.00;;;29.40;94.70;;;;;;1966344;71;21166;-73
2021/10/22 05:22:17;;;;;;;3.87;1.45;;;29.50;93.80;;;;;;1980269;71;21099;-74
2021/10/22 05:24:52;;;;;;;2.85;1.37;;;29.50;93.80;;;;;;1978764;71;21140;-76
2021/10/22 05:27:27;;;;;;;2.72;1.17;;;29.60;93.40;;;;;;1981449;71;22377;-73
2021/10/22 05:29:57;;;;;;;3.25;1.10;;;29.60;93.00;;;;;;1985966;70;21075;-72
2021/10/22 05:32:29;;;;;;;3.70;1.20;;;29.80;92.70;;;;;;1974472;70;21111;-72
2021/10/22 05:35:01;;;;;;;2.35;1.20;;;29.90;92.40;;;;;;1977713;71;21186;-73
2021/10/22 05:37:32;;;;;;;3.02;1.20;;;30.00;92.20;;;;;;1978687;71;21240;-73
2021/10/22 05:40:03;;;;;;;2.20;1.15;;;30.10;92.20;;;;;;1970621;71;21150;-72
2021/10/22 05:42:34;;;;;;;3.02;1.52;;;30.30;92.10;;;;;;1983969;70;21205;-73
2021/10/22 05:45:07;;;;;;;2.25;1.10;;;30.40;91.90;;;;;;1969790;71;21507;-73
2021/10/22 05:47:38;;;;;;;2.25;0.90;;;30.40;91.90;;;;;;1976865;70;21181;-73
2021/10/22 05:50:10;;;;;;;5.83;0.90;;;30.40;91.30;;;;;;1967928;70;21124;-73
2021/10/22 05:52:41;;;;;;;2.77;1.20;;;30.40;91.50;;;;;;1979168;71;21673;-73
2021/10/22 05:55:12;;;;;;;2.35;1.20;;;30.20;91.50;;;;;;1995932;70;21112;-73
2021/10/22 05:57:42;;;;;;;1.72;1.00;;;30.10;91.60;;;;;;1919895;74;21716;-74
2021/10/22 06:00:14;;;;;;;1.87;1.20;;;30.10;91.70;;;;;;1973487;71;21642;-73
2021/10/22 06:02:45;;;;;;;3.00;1.30;;;30.00;91.60;;;;;;1999898;71;21131;-73
2021/10/22 06:05:15;;;;;;;3.22;1.47;;;30.00;91.80;;;;;;1984111;71;21143;-74
2021/10/22 06:07:46;;;;;;;3.35;1.40;;;29.90;92.10;;;;;;1961297;72;21560;-74
2021/10/22 06:10:17;;;;;;;1.55;1.00;;;29.90;92.10;;;;;;1966064;72;21599;-74
2021/10/22 06:12:48;;;;;;;3.90;1.15;;;29.90;92.10;;;;;;1964382;72;21143;-74
2021/10/22 06:15:19;;;;;;;2.15;0.68;;;29.90;92.10;;;;;;1965388;71;21599;-74
2021/10/22 06:17:53;;;;;;;3.47;1.40;;;29.90;91.80;;;;;;1985167;72;21623;-74
2021/10/22 06:20:28;;;;;;;4.90;1.02;;;29.80;91.50;;;;;;1977795;71;21080;-74
2021/10/22 06:25:27;;;;;;;3.95;1.35;;;29.70;91.40;;;;;;1963827;71;21131;-75
2021/10/22 06:27:58;;;;;;;2.37;1.20;;;29.80;91.30;;;;;;1971467;71;21781;-74
2021/10/22 06:30:28;;;;;;;2.00;1.25;;;29.70;91.20;;;;;;1976793;71;21145;-73
2021/10/22 06:32:59;;;;;;;1.52;0.90;;;29.90;91.20;;;;;;1986472;72;21135;-73
2021/10/22 06:35:30;;;;;;;2.50;1.10;;;30.00;90.90;;;;;;1966839;71;21232;-73
2021/10/22 06:38:01;;;;;;;2.10;1.20;;;30.10;90.70;;;;;;1969090;71;21064;-74
2021/10/22 06:40:32;;;;;;;2.25;1.00;;;30.20;90.60;;;;;;1974997;71;21100;-74
2021/10/22 06:43:03;;;;;;;5.70;1.25;;;30.20;90.10;;;;;;1988191;71;21168;-74
2021/10/22 06:45:34;;;;;;;4.17;1.20;;;30.20;90.20;;;;;;1964150;72;21197;-73
2021/10/22 06:48:05;;;;;;;3.70;1.25;;;30.20;90.30;;;;;;1920843;73;21543;-74
2021/10/22 06:50:36;;;;;;;2.67;0.95;;;30.30;90.40;;;;;;1912206;73;21297;-73
2021/10/22 06:53:08;;;;;;;2.55;0.95;;;30.20;90.00;;;;;;1958107;72;21177;-73
2021/10/22 06:55:39;;;;;;;2.83;1.10;;;30.00;90.30;;;;;;1946991;73;21155;-73
2021/10/22 06:58:10;;;;;;;1.98;0.80;;;30.00;90.50;;;;;;1962029;72;21161;-74
2021/10/22 07:00:41;;;;;;;2.83;1.00;;;29.90;90.80;;;;;;1963822;71;21204;-73
2021/10/22 07:03:16;;;;;;;1.77;0.85;;;29.90;90.60;;;;;;1962849;72;21624;-73
2021/10/22 07:08:15;;;;;;;3.02;0.90;;;29.90;91.00;;;;;;1980183;70;21119;-74
2021/10/22 07:10:46;;;;;;;2.95;0.90;;;29.90;90.80;;;;;;1983117;71;21182;-73
2021/10/22 07:13:17;;;;;;;1.92;0.90;;;29.90;90.70;;;;;;1976526;71;21232;-74
2021/10/22 07:15:48;;;;;;;2.55;0.82;;;29.90;90.90;;;;;;1978012;71;21184;-74
2021/10/22 07:18:19;;;;;;;2.00;0.88;;;29.90;90.80;;;;;;1978596;72;21189;-74
2021/10/22 07:20:50;;;;;;;2.47;0.98;;;29.90;90.40;;;;;;1978986;71;21212;-74
2021/10/22 07:23:22;;;;;;;1.45;0.70;;;29.90;90.50;;;;;;1976067;71;21158;-74
2021/10/22 07:25:52;;;;;;;2.15;0.82;;;29.80;90.60;;;;;;1968063;70;21574;-74
2021/10/22 07:28:23;;;;;;;2.62;1.10;;;29.80;90.60;;;;;;1979701;71;21248;-74
2021/10/22 07:30:55;;;;;;;2.72;0.80;;;29.70;90.60;;;;;;1971792;71;21884;-74
2021/10/22 07:33:27;;;;;;;2.45;1.05;;;29.70;90.60;;;;;;1986314;71;21221;-74
2021/10/22 07:35:58;;;;;;;2.83;0.70;;;29.70;90.70;;;;;;1988810;71;21119;-74
2021/10/22 07:38:29;;;;;;;2.10;0.75;;;29.60;90.60;;;;;;1986349;72;21134;-74
2021/10/22 07:41:00;;;;;;;1.67;1.00;;;29.60;90.60;;;;;;1987685;71;21146;-74
2021/10/22 07:43:31;;;;;;;2.85;0.72;;;29.60;90.60;;;;;;1980984;71;21189;-74
2021/10/22 07:46:02;;;;;;;1.85;0.88;;;29.60;90.70;;;;;;1928838;73;21261;-72
2021/10/22 07:48:35;;;;;;;2.70;0.82;;;29.70;90.90;;;;;;1977916;71;21544;-74
2021/10/22 07:51:06;;;;;;;3.17;1.00;;;29.70;91.10;;;;;;1967047;71;21167;-74
2021/10/22 07:53:37;;;;;;;2.47;0.80;;;29.70;91.10;;;;;;1971312;71;21512;-74
2021/10/22 07:56:07;;;;;;;3.12;0.82;;;29.70;90.80;;;;;;1976203;71;21169;-74
2021/10/22 07:58:38;;;;;;;1.55;0.60;;;29.60;90.90;;;;;;1975289;71;21119;-74
2021/10/22 08:01:09;;;;;;;2.08;0.75;;;29.60;90.80;;;;;;1977463;71;21147;-74
2021/10/22 08:03:40;;;;;;;2.80;0.90;;;29.60;90.60;;;;;;1974332;71;21130;-74
2021/10/22 08:06:13;;;;;;;2.05;0.90;;;29.50;90.70;;;;;;1968603;71;21131;-74
2021/10/22 08:08:45;;;;;;;2.77;0.70;;;29.50;90.70;;;;;;1984329;71;21567;-74
2021/10/22 08:11:17;;;;;;;1.20;0.60;;;29.50;90.80;;;;;;1974947;71;21119;-73
2021/10/22 08:13:49;;;;;;;2.08;1.10;;;29.40;90.70;;;;;;1978742;71;21181;-73
2021/10/22 08:16:20;;;;;;;2.30;0.70;;;29.30;90.80;;;;;;1976492;72;21159;-73
2021/10/22 08:18:52;;;;;;;1.60;0.90;;;29.30;91.00;;;;;;1967841;71;21107;-73
2021/10/22 08:23:57;;;;;;;2.05;0.70;;;29.20;91.30;;;;;;1963598;71;21192;-74
2021/10/22 08:26:28;;;;;;;2.47;0.90;;;29.20;91.50;;;;;;1928860;73;21057;-74
2021/10/22 08:29:01;;;;;;;2.20;0.80;;;29.20;91.70;;;;;;1900967;73;21587;-74
2021/10/22 08:31:31;;;;;;;2.27;0.80;;;29.20;91.80;;;;;;1931238;73;21204;-74
2021/10/22 08:34:02;;;;;;;3.40;0.70;;;29.20;91.80;;;;;;1910030;73;21477;-74
2021/10/22 08:36:33;;;;;;;3.30;0.90;;;29.20;92.00;;;;;;1923255;73;21143;-74
2021/10/22 08:39:05;;;;;;;1.32;0.82;;;29.10;92.20;;;;;;1985017;71;21144;-74
2021/10/22 08:41:43;;;;;;;1.75;0.80;;;29.10;92.50;;;;;;1961678;72;21145;-74
2021/10/22 08:44:10;;;;;;;3.27;1.10;;;29.10;92.40;;;;;;1969959;71;21067;-76
2021/10/22 08:46:42;;;;;;;1.60;0.80;;;29.00;92.30;;;;;;1972129;71;21244;-74
2021/10/22 08:49:14;;;;;;;2.87;1.00;;;29.00;92.20;;;;;;1974934;71;21155;-74
2021/10/22 08:51:45;;;;;;;1.75;0.80;;;29.00;92.20;;;;;;1988875;71;21099;-73
2021/10/22 08:54:15;;;;;;;1.82;0.80;;;29.00;91.90;;;;;;1995610;71;21567;-74
2021/10/22 08:56:46;;;;;;;1.70;1.00;;;29.00;91.90;;;;;;1971317;71;21500;-75
2021/10/22 08:59:17;;;;;;;3.47;1.10;;;28.90;92.10;;;;;;1978328;71;21139;-74
2021/10/22 09:01:50;;;;;;;2.95;1.10;;;28.90;92.30;;;;;;1986830;72;21080;-75
2021/10/22 09:04:24;;;;;;;3.77;1.50;;;28.90;92.50;;;;;;1970124;71;21545;-74
2021/10/22 09:06:55;;;;;;;2.50;1.05;;;28.90;92.60;;;;;;1984607;71;21119;-74
2021/10/22 09:09:26;;;;;;;5.67;1.57;;;28.90;92.60;;;;;;1988283;71;22021;-74
2021/10/22 09:11:57;;;;;;;2.67;1.22;;;28.90;92.70;;;;;;1972541;71;21057;-74
2021/10/22 09:14:28;;;;;;;2.30;1.15;;;28.90;92.80;;;;;;1985179;71;21119;-74
2021/10/22 09:16:59;;;;;;;7.10;1.72;;;28.90;92.80;;;;;;1988991;71;21197;-74
2021/10/22 09:19:33;;;;;;;3.98;1.20;;;28.90;93.00;;;;;;1982930;71;21184;-74
2021/10/22 09:22:07;;;;;;;2.40;1.40;;;28.90;93.00;;;;;;1950993;72;21138;-73
2021/10/22 09:24:38;;;;;;;3.45;1.30;;;28.90;93.00;;;;;;1997208;71;21590;-73
2021/10/22 09:27:09;;;;;;;2.17;1.30;;;28.90;93.10;;;;;;1965683;71;21580;-74
2021/10/22 09:29:43;;;;;;;3.65;1.57;;;28.90;93.20;;;;;;1975224;71;21142;-74
2021/10/22 09:32:15;;;;;;;2.90;1.32;;;28.90;93.20;;;;;;1958428;72;21644;-74
2021/10/22 09:34:49;;;;;;;3.67;1.55;;;28.90;93.30;;;;;;1975980;71;21158;-74
2021/10/22 09:37:20;;;;;;;3.12;1.72;;;28.90;93.40;;;;;;1982133;71;21163;-74
2021/10/22 09:39:53;;;;;;;3.62;1.60;;;28.90;93.90;;;;;;1967841;71;21604;-74
2021/10/22 09:42:24;;;;;;;3.87;1.50;;;28.90;93.50;;;;;;1982951;71;21040;-74
2021/10/22 09:44:55;;;;;;;2.12;1.50;;;28.90;93.50;;;;;;1974801;71;21485;-74
2021/10/22 09:47:26;;;;;;;4.85;1.92;;;28.80;93.50;;;;;;1986693;71;21620;-74
2021/10/22 09:49:59;;;;;;;3.75;1.72;;;28.80;93.50;;;;;;1988042;71;21107;-73
2021/10/22 09:52:31;;;;;;;3.72;1.90;;;28.80;93.50;;;;;;1972292;71;21084;-73
2021/10/22 09:55:04;;;;;;;4.70;2.33;;;28.80;93.60;;;;;;1989192;71;21628;-74
2021/10/22 09:57:35;;;;;;;8.30;2.37;;;28.80;93.60;;;;;;1963819;71;21127;-74
2021/10/22 10:00:08;;;;;;;2.40;1.50;;;28.80;93.70;;;;;;1963520;73;21173;-73
2021/10/22 10:02:40;;;;;;;3.25;1.75;;;28.80;93.60;;;;;;1950637;72;21237;-73
2021/10/22 10:05:13;;;;;;;6.08;2.98;;;28.70;93.60;;;;;;1973980;71;21126;-74
2021/10/22 10:07:46;;;;;;;4.17;2.40;;;28.70;93.70;;;;;;1980958;71;21204;-74
2021/10/22 10:10:17;;;;;;;5.45;2.60;;;28.70;93.80;;;;;;1980088;71;21143;-73
2021/10/22 10:12:48;;;;;;;6.53;2.50;;;28.70;93.90;;;;;;1980647;71;21123;-74
2021/10/22 10:15:18;;;;;;;4.58;2.05;;;28.70;93.80;;;;;;1974133;71;21575;-74
2021/10/22 10:17:51;;;;;;;3.55;1.85;;;28.70;93.80;;;;;;1913059;73;21585;-74
2021/10/22 10:20:25;;;;;;;5.15;2.10;;;28.70;93.80;;;;;;1904251;74;21630;-74
2021/10/22 10:22:57;;;;;;;6.30;2.12;;;28.70;93.80;;;;;;1969896;72;21234;-73
2021/10/22 10:25:28;;;;;;;3.60;2.17;;;28.70;93.80;;;;;;1968880;71;21143;-74
2021/10/22 10:27:59;;;;;;;4.22;2.60;;;28.60;93.80;;;;;;1977677;71;21178;-74
2021/10/22 10:30:32;;;;;;;5.67;3.45;;;28.60;94.00;;;;;;1987302;71;21700;-74
2021/10/22 10:33:05;;;;;;;4.95;3.20;;;28.60;94.10;;;;;;1966599;72;21727;-74
2021/10/22 10:35:39;;;;;;;4.87;3.10;;;28.60;94.30;;;;;;1981281;71;21111;-74
2021/10/22 10:38:12;;;;;;;7.33;3.60;;;28.60;94.40;;;;;;1987998;71;21131;-74
2021/10/22 10:40:42;;;;;;;6.03;3.62;;;28.50;94.50;;;;;;1917868;73;21155;-72
2021/10/22 10:43:15;;;;;;;8.68;3.62;;;28.50;94.60;;;;;;1906612;73;21108;-73
2021/10/22 10:45:47;;;;;;;8.20;3.90;;;28.50;94.70;;;;;;1912956;73;21627;-73
2021/10/22 10:48:21;;;;;;;8.08;4.00;;;28.50;94.80;;;;;;1894737;73;21172;-72
2021/10/22 10:50:55;;;;;;;10.35;4.00;;;28.40;94.90;;;;;;1890460;73;21227;-73
2021/10/22 10:53:27;;;;;;;7.15;3.70;;;28.40;95.00;;;;;;1920541;73;21661;-72
2021/10/22 10:55:59;;;;;;;6.45;3.70;;;28.40;95.00;;;;;;1957495;72;21922;-73
2021/10/22 10:58:30;;;;;;;6.72;3.50;;;28.40;95.10;;;;;;1951776;72;21539;-73
2021/10/22 11:01:07;;;;;;;6.87;3.55;;;28.40;95.20;;;;;;1969612;72;21665;-73
2021/10/22 11:03:36;;;;;;;8.00;4.12;;;28.40;95.30;;;;;;1968793;71;21114;-72
2021/10/22 11:06:07;;;;;;;7.78;4.03;;;28.40;95.40;;;;;;1974355;71;21099;-71
2021/10/22 11:08:41;;;;;;;8.23;3.80;;;28.30;95.50;;;;;;1973145;71;21177;-72
2021/10/22 11:11:16;;;;;;;9.55;4.62;;;28.30;95.60;;;;;;1972344;71;21083;-73
2021/10/22 11:13:45;;;;;;;7.03;4.47;;;28.30;95.60;;;;;;1977436;72;21632;-72
2021/10/22 11:16:18;;;;;;;7.53;3.92;;;28.30;95.70;;;;;;1974340;71;21224;-72
2021/10/22 11:18:51;;;;;;;8.08;4.50;;;28.30;95.80;;;;;;1983957;71;21638;-71
2021/10/22 11:21:23;;;;;;;8.00;4.75;;;28.30;95.90;;;;;;1982174;71;21697;-73
2021/10/22 11:23:55;;;;;;;10.58;4.92;;;28.30;95.90;;;;;;1975212;71;21106;-73
2021/10/22 11:26:26;;;;;;;11.33;5.03;;;28.20;96.00;;;;;;1980771;71;21186;-73
2021/10/22 11:29:00;;;;;;;7.40;5.08;;;28.20;96.20;;;;;;1981340;71;21127;-72
2021/10/22 11:31:33;;;;;;;8.43;5.50;;;28.20;96.10;;;;;;1979546;71;21127;-73
2021/10/22 11:34:05;;;;;;;9.63;5.80;;;28.20;96.20;;;;;;1979283;71;21155;-73
2021/10/22 11:36:46;;;;;;;7.87;5.33;;;28.20;96.30;;;;;;1973700;71;21076;-72
2021/10/22 11:39:18;;;;;;;11.03;5.20;;;28.20;96.30;;;;;;1965060;71;21064;-73
2021/10/22 11:42:10;;;;;;;8.03;4.53;;;28.10;96.30;;;;;;1947340;71;21135;-72
2021/10/22 11:44:44;;;;;;;7.00;3.72;;;28.10;96.30;;;;;;1930867;73;21587;-73
2021/10/22 11:50:02;;;;;;;9.95;5.47;;;28.00;96.30;;;;;;1889838;74;21151;-73
2021/10/22 11:52:54;;;;;;;8.73;4.20;;;28.00;96.40;;;;;;1956277;71;21658;-74
2021/10/22 11:55:27;;;;;;;7.67;3.95;;;28.00;96.40;;;;;;1950782;72;21123;-72
2021/10/22 11:58:00;;;;;;;11.43;4.17;;;28.00;96.40;;;;;;1961357;72;21586;-73
2021/10/22 12:00:31;;;;;;;6.87;4.12;;;28.00;96.40;;;;;;1969475;72;21139;-73
2021/10/22 12:03:02;;;;;;;8.63;4.15;;;28.00;96.40;;;;;;1977740;71;21646;-73
2021/10/22 12:05:33;;;;;;;8.30;3.92;;;28.00;96.50;;;;;;1981448;70;21075;-72
2021/10/22 12:08:05;;;;;;;6.03;4.30;;;28.00;96.50;;;;;;1980479;71;22004;-73
2021/10/22 12:10:38;;;;;;;6.90;4.17;;;27.90;96.50;;;;;;1923261;72;21219;-73
2021/10/22 12:13:08;;;;;;;8.70;3.90;;;27.90;96.50;;;;;;1964975;72;21587;-73
2021/10/22 12:15:39;;;;;;;7.65;3.85;;;27.90;96.60;;;;;;1961988;72;21112;-73
2021/10/22 12:18:10;;;;;;;7.55;4.08;;;27.90;96.70;;;;;;1964178;71;21556;-73
2021/10/22 12:20:42;;;;;;;7.30;3.85;;;27.90;96.60;;;;;;1972701;72;21729;-73
2021/10/22 12:23:14;;;;;;;7.85;3.85;;;27.90;96.60;;;;;;1982250;71;22093;-72
2021/10/22 12:25:46;;;;;;;9.25;4.15;;;27.90;96.70;;;;;;1978636;71;21268;-72
2021/10/22 12:28:19;;;;;;;7.20;3.50;;;27.90;96.80;;;;;;1982059;71;21230;-73
2021/10/22 12:30:53;;;;;;;7.65;4.22;;;27.90;96.90;;;;;;1978085;72;21699;-73
2021/10/22 12:33:24;;;;;;;6.65;3.85;;;27.80;96.90;;;;;;1992417;70;21064;-73
2021/10/22 12:35:56;;;;;;;7.70;3.60;;;27.90;97.00;;;;;;1981586;71;21116;-73
2021/10/22 12:38:29;;;;;;;6.28;3.90;;;27.90;97.10;;;;;;1990556;70;21233;-73
2021/10/22 12:41:03;;;;;;;5.87;3.83;;;27.80;97.10;;;;;;1993087;71;21104;-73
2021/10/22 12:43:36;;;;;;;6.33;3.58;;;27.80;97.10;;;;;;1974555;71;21115;-73
2021/10/22 12:46:10;;;;;;;8.75;4.10;;;27.80;97.20;;;;;;1968018;71;21139;-74
2021/10/22 12:48:43;;;;;;;6.60;4.12;;;27.80;97.20;;;;;;1995936;71;21220;-74
2021/10/22 12:51:17;;;;;;;10.20;4.35;;;27.80;97.20;;;;;;1986785;71;21491;-73
2021/10/22 12:53:50;;;;;;;8.40;4.47;;;27.80;97.30;;;;;;1981740;71;21212;-73
2021/10/22 12:56:25;;;;;;;7.95;4.22;;;27.80;97.30;;;;;;1973735;71;21127;-73
2021/10/22 12:58:55;;;;;;;9.38;5.00;;;27.70;97.30;;;;;;1966777;70;22074;-73
2021/10/22 13:01:30;;;;;;;7.17;4.12;;;27.70;97.40;;;;;;1972123;71;21142;-74
2021/10/22 13:04:04;;;;;;;8.98;3.92;;;27.70;97.40;;;;;;1985786;71;21606;-73
2021/10/22 13:06:40;;;;;;;6.12;3.62;;;27.70;97.50;;;;;;1986512;71;21625;-72
2021/10/22 13:21:57;;;;;;;6.47;3.37;;;27.70;97.60;;;;;;1944178;72;21631;-84
2021/10/22 13:24:28;;;;;;;5.95;3.87;;;27.60;97.50;;;;;;1998534;71;21107;-80
2021/10/22 13:27:00;;;;;;;7.80;3.98;;;27.60;97.60;;;;;;1984704;71;21110;-81
2021/10/22 13:29:32;;;;;;;6.22;3.20;;;27.60;97.50;;;;;;1965049;72;21950;-80
2021/10/22 13:32:04;;;;;;;8.15;3.17;;;27.60;97.50;;;;;;1963461;72;21068;-80
2021/10/22 13:34:35;;;;;;;5.25;3.33;;;27.60;97.50;;;;;;1957244;72;21591;-80